»·PEaware :: UAL1842 KIAH-KLAX

UAL1842 :: KIAH-KLAX

FLIGHT INFORMATION

Flight Status: Arrived
Operator:
United Airlines
More flights by this operator :: More flights under this callsign
Pilot: Henderson P. (1210)
Aircraft: BOEING 777-200
(B772)
More flights by this aircraft type
Origin: KIAH G Bush Intercontinental/Houst
United States
Destination: KLAX Los Angeles Intl
United States
More flights between these airports :: More routes between these airports
Route: +RITAA5 PSX THX LRD AGNID VYLLA J92 TUS J104 MESSI ESTWD HLYWD1
File this flight plan on PilotEdge
Remarks:
Altitude:
(Current/Filed)
36,000ft
Speed:
(Current/Filed)
483kts
Departed: 07-Sep-18 05:42 PM
Arrived: 07-Sep-18 08:57 PM
Distance/Time
Traveled:
1195nm/3:15
Distance/Time
To Go:
Arrived

Flight Plot

Page will automatically refresh every two minutes.

Flight plan parsing failed; only flown route is shown


Map Options




Map Legend


Flown Route
Filed Route
Departure Airport
Arrival Airport
Navaid (VOR, NDB)
Fix

Horizontal Profiles

Position Reports

Time Latitude Longitude Heading Altitude Ground
Speed
07-Sep-18 16:23 29.983844 -95.335854 60 111ft 0kts
07-Sep-18 16:24 29.983844 -95.335854 60 111ft 0kts
07-Sep-18 16:25 29.983844 -95.335854 60 111ft 0kts
07-Sep-18 16:26 29.983844 -95.335854 60 111ft 0kts
07-Sep-18 16:27 29.983844 -95.335854 60 111ft 0kts
07-Sep-18 16:28 29.983844 -95.335854 60 111ft 0kts
07-Sep-18 16:29 29.983844 -95.335854 60 111ft 0kts
07-Sep-18 16:30 29.983844 -95.335854 60 111ft 0kts
07-Sep-18 16:31 29.983844 -95.335854 60 111ft 0kts
07-Sep-18 16:32 29.983844 -95.335854 60 111ft 0kts
07-Sep-18 16:33 29.983844 -95.335854 60 111ft 0kts
07-Sep-18 16:34 29.983844 -95.335854 60 111ft 0kts
07-Sep-18 16:35 29.983844 -95.335854 60 111ft 0kts
07-Sep-18 16:36 29.983844 -95.335854 60 111ft 0kts
07-Sep-18 16:37 29.983844 -95.335854 60 111ft 0kts
07-Sep-18 16:38 29.983844 -95.335854 60 111ft 0kts
07-Sep-18 16:39 29.983844 -95.335854 60 111ft 0kts
07-Sep-18 16:40 29.983844 -95.335854 60 111ft 0kts
07-Sep-18 16:41 29.983844 -95.335854 60 111ft 0kts
07-Sep-18 16:42 29.983844 -95.335854 60 111ft 0kts
07-Sep-18 16:43 29.983844 -95.335854 60 111ft 0kts
07-Sep-18 16:44 29.983844 -95.335854 60 111ft 0kts
07-Sep-18 16:45 29.983844 -95.335854 60 111ft 0kts
07-Sep-18 16:46 29.983844 -95.335854 60 111ft 0kts
07-Sep-18 16:47 29.983844 -95.335854 60 111ft 0kts
07-Sep-18 16:48 29.983844 -95.335854 60 111ft 0kts
07-Sep-18 16:49 29.983844 -95.335854 60 111ft 0kts
07-Sep-18 16:50 29.983844 -95.335854 60 111ft 0kts
07-Sep-18 16:51 29.983844 -95.335854 60 111ft 0kts
07-Sep-18 16:52 29.983844 -95.335854 60 111ft 0kts
07-Sep-18 16:53 29.983844 -95.335854 60 111ft 0kts
07-Sep-18 16:54 29.983844 -95.335854 60 111ft 0kts
07-Sep-18 16:55 29.983844 -95.335854 60 111ft 0kts
07-Sep-18 16:56 29.983844 -95.335854 60 111ft 0kts
07-Sep-18 16:57 29.983844 -95.335854 60 111ft 0kts
07-Sep-18 16:58 29.983844 -95.335854 60 111ft 0kts
07-Sep-18 16:59 29.983844 -95.335854 60 111ft 0kts
07-Sep-18 17:00 29.983844 -95.335854 60 111ft 0kts
07-Sep-18 17:01 29.983844 -95.335854 60 111ft 0kts
07-Sep-18 17:02 29.983844 -95.335854 60 111ft 0kts
07-Sep-18 17:03 29.983844 -95.335854 60 111ft 0kts
07-Sep-18 17:04 29.983844 -95.335854 60 111ft 0kts
07-Sep-18 17:05 29.983844 -95.335854 60 111ft 0kts
07-Sep-18 17:06 29.983844 -95.335854 60 111ft 0kts
07-Sep-18 17:07 29.983844 -95.335854 60 111ft 0kts
07-Sep-18 17:07 29.983844 -95.335854 60 111ft 0kts
07-Sep-18 17:08 29.983844 -95.335854 60 111ft 0kts
07-Sep-18 17:09 29.983844 -95.335854 60 111ft 0kts
07-Sep-18 17:11 29.983844 -95.335854 60 111ft 0kts
07-Sep-18 17:11 29.983844 -95.335854 60 111ft 0kts
07-Sep-18 17:12 29.983844 -95.335854 60 111ft 0kts
07-Sep-18 17:13 29.983844 -95.335854 60 111ft 0kts
07-Sep-18 17:14 29.983844 -95.335854 60 111ft 0kts
07-Sep-18 17:15 29.983844 -95.335854 60 111ft 0kts
07-Sep-18 17:16 29.983844 -95.335854 60 111ft 0kts
07-Sep-18 17:17 29.983823 -95.335898 60 111ft 1kts
07-Sep-18 17:18 29.983470 -95.336517 47 111ft 2kts
07-Sep-18 17:19 29.983129 -95.336798 303 111ft 2kts
07-Sep-18 17:20 29.983097 -95.336473 274 111ft 0kts
07-Sep-18 17:21 29.983097 -95.336473 274 111ft 0kts
07-Sep-18 17:22 29.983097 -95.336473 274 111ft 0kts
07-Sep-18 17:23 29.982545 -95.337032 234 111ft 4kts
07-Sep-18 17:24 29.982812 -95.340782 304 111ft 12kts
07-Sep-18 17:25 29.982848 -95.344161 242 111ft 9kts
07-Sep-18 17:26 29.982580 -95.346833 268 111ft 7kts
07-Sep-18 17:27 29.982560 -95.349419 270 111ft 8kts
07-Sep-18 17:28 29.982023 -95.351979 282 111ft 7kts
07-Sep-18 17:29 29.984261 -95.353510 332 111ft 10kts
07-Sep-18 17:30 29.987171 -95.355287 331 111ft 12kts
07-Sep-18 17:32 29.988302 -95.356708 241 111ft 0kts
07-Sep-18 17:33 29.988302 -95.356709 241 111ft 0kts
07-Sep-18 17:34 29.988301 -95.356710 241 111ft 0kts
07-Sep-18 17:35 29.988301 -95.356711 241 111ft 0kts
07-Sep-18 17:36 29.988301 -95.356711 241 111ft 0kts
07-Sep-18 17:37 29.988300 -95.356712 241 111ft 0kts
07-Sep-18 17:38 29.988300 -95.356713 241 111ft 0kts
07-Sep-18 17:39 29.988300 -95.356713 241 111ft 0kts
07-Sep-18 17:40 29.988299 -95.356714 241 111ft 0kts
07-Sep-18 17:41 29.988124 -95.357084 240 111ft 8kts
07-Sep-18 17:42 29.987334 -95.357521 151 111ft 0kts
07-Sep-18 17:43 29.987334 -95.357521 151 111ft 0kts
07-Sep-18 17:44 29.982859 -95.354802 152 111ft 93kts
07-Sep-18 17:45 29.945546 -95.327098 131 1665ft 181kts
07-Sep-18 17:46 29.909466 -95.270584 128 3622ft 270kts
07-Sep-18 17:47 29.862251 -95.196949 126 4976ft 284kts
07-Sep-18 17:48 29.814083 -95.126651 137 5163ft 274kts
07-Sep-18 17:49 29.745429 -95.091700 196 8877ft 286kts
07-Sep-18 17:50 29.673470 -95.141445 219 11666ft 334kts
07-Sep-18 17:51 29.600659 -95.222451 224 14239ft 386kts
07-Sep-18 17:52 29.528840 -95.319266 232 17401ft 409kts
07-Sep-18 17:53 29.455857 -95.423864 231 20246ft 430kts
07-Sep-18 17:54 29.378598 -95.533366 231 22750ft 449kts
07-Sep-18 17:55 29.298428 -95.646599 230 25027ft 467kts
07-Sep-18 17:56 29.214787 -95.763880 230 27228ft 482kts
07-Sep-18 17:57 29.123683 -95.878843 224 29318ft 496kts
07-Sep-18 17:58 29.026580 -95.993287 225 31678ft 501kts
07-Sep-18 17:59 28.930825 -96.108289 225 34464ft 496kts
07-Sep-18 18:00 28.835453 -96.221801 225 36002ft 495kts
07-Sep-18 18:01 28.754037 -96.346529 251 35999ft 497kts
07-Sep-18 18:02 28.735971 -96.502153 263 36006ft 497kts
07-Sep-18 18:03 28.716477 -96.658132 261 36009ft 497kts
07-Sep-18 18:04 28.695500 -96.813585 261 36008ft 496kts
07-Sep-18 18:05 28.674162 -96.968874 261 36009ft 496kts
07-Sep-18 18:06 28.652612 -97.123709 261 36008ft 496kts
07-Sep-18 18:07 28.630820 -97.278898 261 36005ft 496kts
07-Sep-18 18:08 28.608857 -97.433980 261 36002ft 496kts
07-Sep-18 18:09 28.586692 -97.589182 261 36001ft 497kts
07-Sep-18 18:10 28.564355 -97.744288 261 36000ft 497kts
07-Sep-18 18:11 28.542061 -97.899621 261 35998ft 497kts
07-Sep-18 18:12 28.519084 -98.055305 261 35997ft 497kts
07-Sep-18 18:13 28.473204 -98.201579 231 35999ft 501kts
07-Sep-18 18:14 28.374969 -98.314516 226 36000ft 503kts
07-Sep-18 18:15 28.279999 -98.430814 228 35999ft 503kts
07-Sep-18 18:16 28.186053 -98.548240 228 35998ft 502kts
07-Sep-18 18:17 28.091805 -98.665192 227 35996ft 501kts
07-Sep-18 18:18 27.997949 -98.781260 227 35990ft 500kts
07-Sep-18 18:19 27.903877 -98.897267 228 35988ft 500kts
07-Sep-18 18:20 27.809641 -99.013158 228 35993ft 500kts
07-Sep-18 18:21 27.715320 -99.128837 227 35987ft 499kts
07-Sep-18 18:22 27.621254 -99.244178 227 35978ft 499kts
07-Sep-18 18:23 27.527072 -99.358852 227 35969ft 498kts
07-Sep-18 18:24 27.488217 -99.499934 285 35961ft 487kts
07-Sep-18 18:25 27.547393 -99.635574 297 35955ft 484kts
07-Sep-18 18:26 27.599087 -99.776047 291 35952ft 485kts
07-Sep-18 18:27 27.646215 -99.918233 292 35959ft 484kts
07-Sep-18 18:28 27.693481 -100.060829 292 35969ft 484kts
07-Sep-18 18:29 27.740466 -100.203080 291 35976ft 484kts
07-Sep-18 18:30 27.787320 -100.345467 291 35979ft 484kts
07-Sep-18 18:31 27.833947 -100.487761 291 35984ft 484kts
07-Sep-18 18:32 27.880554 -100.630563 291 35988ft 483kts
07-Sep-18 18:33 27.926903 -100.773140 291 35991ft 483kts
07-Sep-18 18:34 27.974654 -100.914593 301 35987ft 480kts
07-Sep-18 18:35 28.079630 -101.004370 333 35997ft 479kts
07-Sep-18 18:36 28.200192 -101.068811 335 35996ft 479kts
07-Sep-18 18:37 28.320754 -101.132720 334 35999ft 480kts
07-Sep-18 18:38 28.436675 -101.208107 325 36001ft 480kts
07-Sep-18 18:39 28.553252 -101.282230 334 36003ft 480kts
07-Sep-18 18:40 28.674399 -101.347039 334 36008ft 481kts
07-Sep-18 18:41 28.795491 -101.411948 334 36012ft 481kts
07-Sep-18 18:42 28.913965 -101.483176 327 36016ft 481kts
07-Sep-18 18:43 29.019467 -101.577265 316 36020ft 481kts
07-Sep-18 18:44 29.108834 -101.690452 307 36025ft 481kts
07-Sep-18 18:45 29.184089 -101.816843 299 36033ft 480kts
07-Sep-18 18:46 29.245634 -101.952295 294 36042ft 479kts
07-Sep-18 18:47 29.245573 -102.098350 248 36051ft 471kts
07-Sep-18 18:48 29.183192 -102.229268 228 36058ft 471kts
07-Sep-18 18:49 29.092758 -102.337932 228 36114ft 471kts
07-Sep-18 18:50 29.012089 -102.455685 240 36122ft 472kts
07-Sep-18 18:51 28.978739 -102.599878 261 36132ft 473kts
07-Sep-18 18:52 28.963728 -102.749365 266 36138ft 473kts
07-Sep-18 18:53 28.956966 -102.898869 266 36150ft 473kts
07-Sep-18 18:54 28.950544 -103.049045 266 36164ft 472kts
07-Sep-18 18:55 28.944378 -103.198801 266 36182ft 471kts
07-Sep-18 18:56 28.938518 -103.348212 266 36199ft 471kts
07-Sep-18 18:57 28.933181 -103.497582 267 36205ft 471kts
07-Sep-18 18:58 28.929283 -103.646667 267 36210ft 470kts
07-Sep-18 18:59 28.924978 -103.795914 267 36257ft 470kts
07-Sep-18 19:00 28.920962 -103.945160 271 36258ft 467kts
07-Sep-18 19:01 28.957635 -104.087546 293 36285ft 480kts
07-Sep-18 19:02 29.012539 -104.224263 291 36246ft 473kts
07-Sep-18 19:03 29.065057 -104.362368 291 36244ft 473kts
07-Sep-18 19:04 29.114396 -104.501298 281 36251ft 470kts
07-Sep-18 19:05 29.118192 -104.649754 267 36250ft 467kts
07-Sep-18 19:06 29.114530 -104.798172 267 36248ft 467kts
07-Sep-18 19:07 29.110868 -104.946362 267 36233ft 467kts
07-Sep-18 19:08 29.107388 -105.094815 267 36228ft 465kts
07-Sep-18 19:09 29.104015 -105.242745 268 36230ft 466kts
07-Sep-18 19:10 29.119779 -105.390089 277 36251ft 467kts
07-Sep-18 19:11 29.139805 -105.536620 277 36250ft 467kts
07-Sep-18 19:12 29.159934 -105.683489 277 36250ft 467kts
07-Sep-18 19:13 29.180144 -105.830211 277 36250ft 467kts
07-Sep-18 19:14 29.200535 -105.977397 277 36249ft 467kts
07-Sep-18 19:15 29.220579 -106.124271 277 36244ft 467kts
07-Sep-18 19:16 29.247706 -106.269271 282 36242ft 468kts
07-Sep-18 19:17 29.287358 -106.411898 287 36236ft 469kts
07-Sep-18 19:17 29.322938 -106.529366 288 36234ft 469kts
07-Sep-18 19:19 29.413246 -106.668961 317 36231ft 476kts
07-Sep-18 19:20 29.514138 -106.766835 317 36225ft 475kts
07-Sep-18 19:21 29.615227 -106.865177 318 36221ft 475kts
07-Sep-18 19:21 29.699189 -106.947193 318 36216ft 474kts
07-Sep-18 19:23 29.816179 -107.062139 318 36213ft 474kts
07-Sep-18 19:23 29.899174 -107.144179 318 36211ft 473kts
07-Sep-18 19:25 30.001732 -107.274510 302 36210ft 471kts
07-Sep-18 19:25 30.057245 -107.382293 299 36206ft 470kts
07-Sep-18 19:26 30.119959 -107.514979 298 36301ft 475kts
07-Sep-18 19:27 30.179996 -107.649823 297 38192ft 471kts
07-Sep-18 19:28 30.237472 -107.784886 297 38187ft 468kts
07-Sep-18 19:29 30.293383 -107.921142 296 38183ft 469kts
07-Sep-18 19:30 30.347976 -108.058306 296 38181ft 468kts
07-Sep-18 19:31 30.405200 -108.193546 304 38179ft 467kts
07-Sep-18 19:32 30.476068 -108.320292 300 38593ft 472kts
07-Sep-18 19:33 30.528081 -108.458551 293 40193ft 468kts
07-Sep-18 19:34 30.573994 -108.598845 293 40176ft 466kts
07-Sep-18 19:35 30.620781 -108.739409 293 40175ft 466kts
07-Sep-18 19:36 30.667430 -108.879717 293 40175ft 466kts
07-Sep-18 19:37 30.714042 -109.020444 293 40175ft 466kts
07-Sep-18 19:38 30.760519 -109.161346 293 40176ft 466kts
07-Sep-18 19:39 30.806814 -109.302295 293 40177ft 467kts
07-Sep-18 19:40 30.852944 -109.443345 293 40184ft 467kts
07-Sep-18 19:41 30.898976 -109.584696 293 40184ft 467kts
07-Sep-18 19:42 30.944882 -109.726271 293 40193ft 467kts
07-Sep-18 19:44 30.990475 -109.867490 293 39848ft 462kts
07-Sep-18 19:45 31.035943 -110.008931 293 38360ft 467kts
07-Sep-18 19:46 31.081639 -110.151692 293 38207ft 469kts
07-Sep-18 19:47 31.127074 -110.294290 293 38211ft 469kts
07-Sep-18 19:48 31.172418 -110.437227 293 38236ft 469kts
07-Sep-18 19:49 31.217469 -110.579871 293 38191ft 469kts
07-Sep-18 19:50 31.262754 -110.723048 293 38176ft 469kts
07-Sep-18 19:51 31.307432 -110.866437 293 38163ft 469kts
07-Sep-18 19:52 31.390541 -110.970508 346 38157ft 455kts
07-Sep-18 19:53 31.516002 -110.957240 7 38161ft 456kts
07-Sep-18 19:54 31.642263 -110.939879 5 38134ft 456kts
07-Sep-18 19:55 31.768233 -110.929899 1 38093ft 454kts
07-Sep-18 19:56 31.894754 -110.924176 1 38063ft 454kts
07-Sep-18 19:57 32.020621 -110.918351 1 38050ft 453kts
07-Sep-18 19:58 32.136819 -110.957563 313 38049ft 455kts
07-Sep-18 19:59 32.191886 -111.093480 298 38043ft 461kts
07-Sep-18 20:00 32.250979 -111.226932 303 38039ft 459kts
07-Sep-18 20:01 32.315617 -111.357112 302 38034ft 459kts
07-Sep-18 20:02 32.380034 -111.487719 302 38025ft 460kts
07-Sep-18 20:03 32.444577 -111.618995 302 38011ft 460kts
07-Sep-18 20:04 32.508746 -111.750232 302 37975ft 460kts
07-Sep-18 20:05 32.573058 -111.881653 302 37961ft 460kts
07-Sep-18 20:06 32.637273 -112.012706 302 37955ft 460kts
07-Sep-18 20:07 32.701261 -112.144404 302 37950ft 460kts
07-Sep-18 20:08 32.765046 -112.276206 301 37944ft 459kts
07-Sep-18 20:09 32.828783 -112.407742 301 37922ft 459kts
07-Sep-18 20:10 32.891798 -112.539227 301 37916ft 459kts
07-Sep-18 20:11 32.955761 -112.670933 306 37914ft 457kts
07-Sep-18 20:12 33.038475 -112.785062 314 37913ft 455kts
07-Sep-18 20:13 33.123937 -112.896335 312 37910ft 455kts
07-Sep-18 20:14 33.208572 -113.008500 313 37909ft 455kts
07-Sep-18 20:15 33.293430 -113.120739 312 37905ft 456kts
07-Sep-18 20:16 33.377869 -113.233775 312 37902ft 455kts
07-Sep-18 20:17 33.462054 -113.346785 312 37895ft 455kts
07-Sep-18 20:18 33.546681 -113.460553 312 37891ft 456kts
07-Sep-18 20:19 33.630887 -113.573762 311 37892ft 454kts
07-Sep-18 20:20 33.714728 -113.687465 311 37929ft 454kts
07-Sep-18 20:21 33.796846 -113.802837 304 37921ft 455kts
07-Sep-18 20:22 33.847601 -113.942428 292 37912ft 456kts
07-Sep-18 20:23 33.895085 -114.083852 293 37897ft 456kts
07-Sep-18 20:24 33.927060 -114.231640 281 37892ft 458kts
07-Sep-18 20:25 33.950510 -114.382456 282 37886ft 459kts
07-Sep-18 20:26 33.975678 -114.533754 283 37868ft 460kts
07-Sep-18 20:27 34.001436 -114.684285 283 37877ft 460kts
07-Sep-18 20:28 34.026307 -114.835042 282 37879ft 457kts
07-Sep-18 20:29 34.050867 -114.985943 282 37885ft 458kts
07-Sep-18 20:30 34.075243 -115.136253 282 37898ft 457kts
07-Sep-18 20:31 34.099471 -115.287252 281 37913ft 457kts
07-Sep-18 20:32 34.124160 -115.437576 281 37931ft 457kts
07-Sep-18 20:33 34.148010 -115.588812 281 37952ft 458kts
07-Sep-18 20:34 34.160518 -115.740169 266 35459ft 464kts
07-Sep-18 20:35 34.144186 -115.893450 265 33415ft 455kts
07-Sep-18 20:36 34.129732 -116.043014 265 31618ft 442kts
07-Sep-18 20:37 34.115344 -116.188048 265 29874ft 430kts
07-Sep-18 20:38 34.101081 -116.329861 265 27976ft 420kts
07-Sep-18 20:39 34.087536 -116.456162 265 26288ft 410kts
07-Sep-18 20:40 34.072896 -116.590881 266 24522ft 398kts
07-Sep-18 20:41 34.060957 -116.721507 267 22814ft 387kts
07-Sep-18 20:42 34.050081 -116.836386 267 21265ft 378kts
07-Sep-18 20:43 34.035944 -116.961202 263 19453ft 374kts
07-Sep-18 20:44 34.021218 -117.077041 265 17713ft 369kts
07-Sep-18 20:45 34.006980 -117.197067 264 15920ft 363kts
07-Sep-18 20:46 33.992718 -117.316216 264 14166ft 357kts
07-Sep-18 20:47 33.980475 -117.420638 263 12657ft 351kts
07-Sep-18 20:48 33.979207 -117.534215 283 11570ft 335kts
07-Sep-18 20:49 33.998962 -117.637456 282 10492ft 317kts
07-Sep-18 20:50 34.004366 -117.734116 261 9368ft 300kts
07-Sep-18 20:51 33.993146 -117.821784 262 8237ft 282kts
07-Sep-18 20:52 33.985037 -117.911963 263 7075ft 277kts
07-Sep-18 20:53 33.977245 -117.992431 262 6038ft 274kts
07-Sep-18 20:54 33.968059 -118.082687 263 4907ft 266kts
07-Sep-18 20:55 33.960347 -118.158127 263 3801ft 258kts
07-Sep-18 20:56 33.951834 -118.241369 263 2424ft 240kts
07-Sep-18 20:57 33.944675 -118.311334 263 1305ft 180kts
07-Sep-18 20:58 33.939270 -118.364156 262 450ft 146kts
07-Sep-18 20:59 33.935634 -118.400038 269 140ft 25kts
07-Sep-18 21:00 33.936209 -118.404704 264 140ft 8kts
07-Sep-18 21:01 33.935913 -118.407867 268 140ft 7kts
07-Sep-18 21:02 33.936490 -118.409028 349 140ft 8kts
07-Sep-18 21:03 33.937885 -118.408718 82 140ft 13kts
07-Sep-18 21:04 33.938300 -118.404634 82 140ft 10kts
07-Sep-18 21:05 33.938625 -118.401491 83 140ft 8kts
07-Sep-18 21:06 33.938909 -118.398669 83 140ft 8kts
07-Sep-18 21:07 33.940695 -118.398620 318 140ft 6kts
07-Sep-18 21:08 33.940980 -118.399014 306 140ft 0kts
07-Sep-18 21:09 33.940980 -118.399014 306 140ft 0kts
07-Sep-18 21:10 33.940980 -118.399014 306 140ft 0kts
07-Sep-18 21:11 33.940980 -118.399014 306 140ft 0kts
07-Sep-18 21:12 33.940980 -118.399014 306 140ft 0kts
07-Sep-18 21:13 33.940980 -118.399014 306 140ft 0kts

Navigation Log

Ident Type
Flight plan parsing failed, navigation log unavailable